Time;durP1;ratioP1;P1;durP2;ratioP2;P2;SDS_P1;SDS_P2;PMS_P1;PMS_P2;Temp;Humidity;BMP_temperature;BMP_pressure;BME280_temperature;BME280_humidity;BME280_pressure;Samples;Min_cycle;Max_cycle;Signal;HPM_P1;HPM_P2
2022/04/02 00:01:15;;;;;;;27.58;14.10;;;0.00;99.90;;;;;;4928645;29;20123;-75
2022/04/02 00:03:41;;;;;;;32.80;17.65;;;-0.20;99.90;;;;;;4928559;29;20027;-83
2022/04/02 00:06:07;;;;;;;28.83;14.68;;;-0.70;99.90;;;;;;4928887;29;20519;-76
2022/04/02 00:08:34;;;;;;;26.83;13.90;;;-0.30;99.90;;;;;;4928489;29;20023;-76
2022/04/02 00:11:00;;;;;;;29.23;13.15;;;-0.90;99.90;;;;;;4928429;29;20074;-75
2022/04/02 00:13:26;;;;;;;27.40;14.27;;;-0.20;99.90;;;;;;4931851;29;20051;-75
2022/04/02 00:15:52;;;;;;;39.15;15.73;;;-1.00;99.90;;;;;;4932589;29;20058;-78
2022/04/02 00:18:17;;;;;;;28.92;14.20;;;0.00;99.90;;;;;;4932493;29;20475;-76
2022/04/02 00:20:43;;;;;;;20.75;9.05;;;-0.30;99.90;;;;;;4931984;29;20028;-76
2022/04/02 00:25:53;;;;;;;17.50;10.55;;;-0.90;99.90;;;;;;4932937;29;20042;-75
2022/04/02 00:28:19;;;;;;;22.10;11.90;;;-0.90;99.90;;;;;;4931911;29;20039;-76
2022/04/02 00:30:45;;;;;;;25.98;12.77;;;-0.60;99.90;;;;;;4932023;29;20027;-75
2022/04/02 00:33:11;;;;;;;31.65;15.65;;;-0.30;99.90;;;;;;4931696;29;20409;-75
2022/04/02 00:35:37;;;;;;;30.30;15.63;;;0.00;99.90;;;;;;4931767;29;20028;-79
2022/04/02 00:38:03;;;;;;;29.02;13.43;;;-0.90;99.90;;;;;;4932343;29;20051;-76
2022/04/02 00:40:29;;;;;;;28.05;13.55;;;-0.90;99.90;;;;;;4931584;29;20069;-76
2022/04/02 00:42:55;;;;;;;25.08;12.55;;;-0.90;99.90;;;;;;4931713;29;20050;-76
2022/04/02 00:45:21;;;;;;;28.83;12.98;;;-0.90;99.90;;;;;;4930270;29;20042;-76
2022/04/02 00:47:46;;;;;;;27.95;12.88;;;-0.90;99.90;;;;;;4931493;29;20098;-77
2022/04/02 00:50:12;;;;;;;31.58;14.10;;;-0.90;99.90;;;;;;4932010;29;20089;-77
2022/04/02 00:52:39;;;;;;;27.77;12.70;;;-0.90;99.90;;;;;;4931643;29;20489;-75
2022/04/02 00:55:06;;;;;;;27.02;12.65;;;-0.60;99.90;;;;;;4931412;29;20027;-75
2022/04/02 00:57:33;;;;;;;27.60;13.45;;;-0.90;99.90;;;;;;4931369;29;20411;-76
2022/04/02 00:59:58;;;;;;;29.13;12.68;;;-0.90;99.90;;;;;;4930254;29;20043;-76
2022/04/02 01:02:24;;;;;;;28.08;14.23;;;-0.20;99.90;;;;;;4931766;29;20024;-76
2022/04/02 01:04:50;;;;;;;29.88;13.43;;;-0.90;99.90;;;;;;4931399;29;20031;-75
2022/04/02 01:07:18;;;;;;;28.92;14.55;;;0.30;99.90;;;;;;4930085;29;20380;-77
2022/04/02 01:09:43;;;;;;;27.00;13.27;;;0.20;99.90;;;;;;4930692;29;20071;-77
2022/04/02 01:12:09;;;;;;;34.88;13.73;;;-0.70;99.90;;;;;;4931548;29;20059;-76
2022/04/02 01:14:35;;;;;;;26.67;13.98;;;-0.90;99.90;;;;;;4931296;29;20110;-80
2022/04/02 01:17:01;;;;;;;31.58;15.27;;;-0.30;99.90;;;;;;4930929;29;20100;-76
2022/04/02 01:19:28;;;;;;;29.45;15.32;;;-0.80;99.90;;;;;;4930906;29;20027;-76
2022/04/02 01:21:54;;;;;;;32.65;15.52;;;-0.30;99.90;;;;;;4930848;29;20120;-77
2022/04/02 01:24:20;;;;;;;29.98;12.27;;;-0.80;99.90;;;;;;4930349;29;20523;-76
2022/04/02 01:26:46;;;;;;;35.40;15.43;;;-0.80;99.90;;;;;;4931111;29;20051;-76
2022/04/02 01:29:12;;;;;;;32.45;15.25;;;-0.40;99.90;;;;;;4929799;29;20063;-76
2022/04/02 01:31:42;;;;;;;27.73;13.60;;;0.00;99.90;;;;;;4931440;29;20071;-75
2022/04/02 01:34:07;;;;;;;31.60;14.48;;;-0.80;99.90;;;;;;4931137;29;20051;-76
2022/04/02 01:36:33;;;;;;;34.55;15.15;;;-0.50;99.90;;;;;;4931004;29;20146;-77
2022/04/02 01:38:59;;;;;;;30.08;15.02;;;-0.80;99.90;;;;;;4930775;29;20664;-76
2022/04/02 01:41:24;;;;;;;33.65;14.82;;;-0.30;99.90;;;;;;4930884;29;20366;-76
2022/04/02 01:43:50;;;;;;;26.70;12.38;;;-0.60;99.90;;;;;;4929423;29;20318;-76
2022/04/02 01:46:16;;;;;;;24.17;11.07;;;-0.80;99.90;;;;;;4930937;29;20352;-76
2022/04/02 01:48:42;;;;;;;28.65;12.07;;;-0.10;99.90;;;;;;4913634;29;20067;-75
2022/04/02 01:51:08;;;;;;;36.03;17.10;;;-0.80;99.90;;;;;;4930800;29;20112;-76
2022/04/02 01:53:34;;;;;;;38.55;18.30;;;-0.10;99.90;;;;;;4930181;29;20504;-78
2022/04/02 01:56:00;;;;;;;27.38;13.93;;;-0.80;99.90;;;;;;4930611;29;20234;-76
2022/04/02 01:58:26;;;;;;;37.47;16.88;;;0.30;99.90;;;;;;4930737;29;20030;-76
2022/04/02 02:00:52;;;;;;;42.03;18.45;;;-0.80;99.90;;;;;;4928646;29;20027;-78
2022/04/02 02:03:18;;;;;;;38.95;18.08;;;-0.80;99.90;;;;;;4930918;29;20110;-76
2022/04/02 02:05:44;;;;;;;35.20;15.65;;;-0.70;99.90;;;;;;4930381;29;20196;-76
2022/04/02 02:08:10;;;;;;;36.00;14.68;;;-0.50;99.90;;;;;;4930383;29;20039;-76
2022/04/02 02:10:36;;;;;;;49.33;20.95;;;-0.80;99.90;;;;;;4928666;29;20118;-76
2022/04/02 02:13:03;;;;;;;42.00;17.00;;;-0.80;99.90;;;;;;4929390;29;20054;-76
2022/04/02 02:15:28;;;;;;;44.60;18.63;;;-0.70;99.90;;;;;;4929139;29;20031;-75
2022/04/02 02:17:54;;;;;;;39.63;16.75;;;-0.80;99.90;;;;;;4930252;29;20031;-83
2022/04/02 02:20:20;;;;;;;39.88;15.77;;;-0.70;99.90;;;;;;4929900;29;20028;-76
2022/04/02 02:22:48;;;;;;;40.70;17.38;;;1.20;99.90;;;;;;4929120;29;20066;-76
2022/04/02 02:25:15;;;;;;;46.53;18.92;;;-0.80;99.90;;;;;;4930083;29;20079;-76
2022/04/02 02:27:42;;;;;;;34.42;15.65;;;-0.80;99.90;;;;;;4930016;29;20646;-75
2022/04/02 02:30:10;;;;;;;38.95;16.80;;;-0.60;99.90;;;;;;4930769;29;20036;-76
2022/04/02 02:32:39;;;;;;;47.55;18.98;;;-0.70;99.90;;;;;;4928343;29;20122;-76
2022/04/02 02:38:01;;;;;;;45.67;20.40;;;-0.70;99.90;;;;;;4930088;29;20035;-76
2022/04/02 02:40:26;;;;;;;48.92;17.83;;;-0.30;99.90;;;;;;4928496;29;20031;-76
2022/04/02 02:42:52;;;;;;;41.03;17.58;;;-0.70;99.90;;;;;;4934167;29;20043;-78
2022/04/02 02:45:18;;;;;;;42.25;17.55;;;-0.40;99.90;;;;;;4933994;29;20028;-76
2022/04/02 02:47:43;;;;;;;35.83;15.30;;;-0.70;99.90;;;;;;4929757;29;20034;-75
2022/04/02 02:50:09;;;;;;;44.47;19.05;;;-0.70;99.90;;;;;;4929537;29;20036;-76
2022/04/02 02:52:35;;;;;;;34.55;15.95;;;1.00;99.90;;;;;;4929237;29;20040;-78
2022/04/02 02:55:00;;;;;;;40.08;17.20;;;-0.10;99.90;;;;;;4927970;29;20028;-82
2022/04/02 02:57:26;;;;;;;30.27;14.07;;;-0.50;99.90;;;;;;4928792;29;20027;-78
2022/04/02 02:59:52;;;;;;;29.13;13.32;;;-0.20;99.90;;;;;;4930845;29;20024;-79
2022/04/02 03:02:17;;;;;;;43.60;18.05;;;0.00;99.90;;;;;;4927634;29;20054;-78
2022/04/02 03:04:43;;;;;;;23.90;10.20;;;-0.60;99.90;;;;;;4928725;29;20028;-77
2022/04/02 03:07:09;;;;;;;37.13;17.15;;;-0.60;99.90;;;;;;4930767;29;20144;-78
2022/04/02 03:09:34;;;;;;;35.08;15.82;;;-0.50;99.90;;;;;;4926962;29;20167;-78
2022/04/02 03:12:00;;;;;;;42.63;19.98;;;0.10;99.90;;;;;;4927569;29;20123;-76
2022/04/02 03:14:26;;;;;;;36.67;16.27;;;-0.70;99.90;;;;;;4928033;29;20523;-78
2022/04/02 03:16:52;;;;;;;28.85;13.55;;;-0.60;99.90;;;;;;4930998;29;20488;-77
2022/04/02 03:19:17;;;;;;;36.58;14.50;;;0.00;99.90;;;;;;4929294;29;20369;-76
2022/04/02 03:21:43;;;;;;;35.42;16.10;;;-0.40;99.90;;;;;;4927816;29;20551;-79
2022/04/02 03:24:09;;;;;;;33.75;14.52;;;-0.20;99.90;;;;;;4927048;29;20112;-79
2022/04/02 03:26:34;;;;;;;29.20;13.52;;;0.80;99.90;;;;;;4927426;29;20044;-77
2022/04/02 03:29:00;;;;;;;37.05;16.67;;;-0.50;99.90;;;;;;4927587;29;20488;-76
2022/04/02 03:31:26;;;;;;;34.63;15.85;;;-0.40;99.90;;;;;;4929995;29;20473;-77
2022/04/02 03:33:51;;;;;;;33.85;14.10;;;-2.20;99.90;;;;;;4929038;29;20044;-75
2022/04/02 03:36:18;;;;;;;38.50;15.73;;;-0.70;99.90;;;;;;4929085;29;20024;-76
2022/04/02 03:38:44;;;;;;;31.17;13.80;;;-0.10;99.90;;;;;;4928268;29;20039;-78
2022/04/02 03:41:10;;;;;;;27.08;10.38;;;-0.20;99.90;;;;;;4928223;29;20034;-78
2022/04/02 03:43:36;;;;;;;34.33;14.52;;;0.10;99.90;;;;;;4928999;29;20366;-78
2022/04/02 03:48:46;;;;;;;37.10;15.18;;;-0.20;99.90;;;;;;4928884;29;20150;-78
2022/04/02 03:51:11;;;;;;;37.53;16.15;;;-0.10;99.90;;;;;;4926472;29;20819;-78
2022/04/02 03:53:37;;;;;;;32.80;13.82;;;-0.70;99.90;;;;;;4927538;29;20043;-77
2022/04/02 03:56:04;;;;;;;31.15;14.48;;;-0.30;99.90;;;;;;4926147;29;20067;-78
2022/04/02 03:58:31;;;;;;;35.72;15.23;;;-0.50;99.90;;;;;;4925000;29;20118;-79
2022/04/02 04:00:57;;;;;;;31.40;13.93;;;-0.70;99.90;;;;;;4927186;29;20027;-81
2022/04/02 04:03:23;;;;;;;30.42;13.77;;;-0.70;99.90;;;;;;4927756;29;20151;-80
2022/04/02 04:05:49;;;;;;;27.40;10.60;;;-0.60;99.90;;;;;;4911308;29;20118;-78
2022/04/02 04:08:14;;;;;;;28.83;13.40;;;-0.70;99.90;;;;;;4911053;29;20027;-77
2022/04/02 04:10:41;;;;;;;27.23;12.73;;;-0.60;99.90;;;;;;4928727;29;20669;-80
2022/04/02 04:13:07;;;;;;;25.63;11.52;;;-0.60;99.90;;;;;;4928326;29;20032;-76
2022/04/02 04:15:33;;;;;;;25.23;11.70;;;-0.70;99.90;;;;;;4912478;29;20163;-77
2022/04/02 04:17:59;;;;;;;28.38;13.07;;;-0.30;99.90;;;;;;4930306;29;20473;-79
2022/04/02 04:20:25;;;;;;;19.48;9.45;;;-0.70;99.90;;;;;;4911215;29;20031;-79
2022/04/02 04:22:52;;;;;;;20.27;10.38;;;-0.60;99.90;;;;;;4928652;29;20027;-78
2022/04/02 04:25:17;;;;;;;30.63;13.98;;;0.00;99.90;;;;;;4930117;29;20043;-77
2022/04/02 04:27:43;;;;;;;29.25;13.27;;;0.00;99.90;;;;;;4913833;29;20413;-78
2022/04/02 04:30:09;;;;;;;24.88;10.55;;;0.10;99.90;;;;;;4930632;29;20452;-80
2022/04/02 04:32:35;;;;;;;24.33;12.80;;;-0.60;99.90;;;;;;4914229;29;20036;-78
2022/04/02 04:35:01;;;;;;;29.08;13.68;;;-0.40;99.90;;;;;;4913916;29;20100;-79
2022/04/02 04:37:27;;;;;;;22.25;11.80;;;-0.20;99.90;;;;;;4913964;29;20120;-78
2022/04/02 04:39:52;;;;;;;24.48;12.05;;;-0.70;99.90;;;;;;4931024;29;20417;-79
2022/04/02 04:42:18;;;;;;;24.48;11.68;;;-0.70;99.90;;;;;;4929220;29;20012;-78
2022/04/02 04:44:44;;;;;;;17.58;10.23;;;-0.40;99.90;;;;;;4912247;29;20027;-78
2022/04/02 04:47:10;;;;;;;22.45;10.45;;;-0.30;99.90;;;;;;4929469;29;20528;-78
2022/04/02 04:49:36;;;;;;;21.60;11.70;;;-0.40;99.90;;;;;;4911592;29;20024;-79
2022/04/02 04:52:03;;;;;;;20.85;11.85;;;-0.50;99.90;;;;;;4913657;29;20035;-79
2022/04/02 04:54:29;;;;;;;27.00;13.07;;;-0.70;99.90;;;;;;4930234;29;20036;-79
2022/04/02 04:56:55;;;;;;;22.10;10.52;;;-0.10;99.90;;;;;;4928652;29;20034;-77
2022/04/02 04:59:21;;;;;;;21.83;9.98;;;-0.10;99.90;;;;;;4932198;29;20032;-77
2022/04/02 05:01:47;;;;;;;21.27;11.82;;;-0.50;99.90;;;;;;4932282;29;20046;-78
2022/04/02 05:04:13;;;;;;;21.40;10.15;;;-0.10;99.90;;;;;;4930831;29;20075;-79
2022/04/02 05:06:40;;;;;;;24.02;11.65;;;-0.40;99.90;;;;;;4930500;29;20031;-79
2022/04/02 05:09:06;;;;;;;20.40;10.68;;;-0.20;99.90;;;;;;4930415;29;20055;-76
2022/04/02 05:11:32;;;;;;;25.23;11.30;;;-0.80;99.90;;;;;;4932069;29;20031;-76
2022/04/02 05:13:59;;;;;;;20.98;10.43;;;-0.70;99.90;;;;;;4930412;29;20069;-76
2022/04/02 05:16:26;;;;;;;17.65;9.73;;;-0.70;99.90;;;;;;4931909;29;20028;-78
2022/04/02 05:18:52;;;;;;;16.23;10.07;;;-0.40;99.90;;;;;;4930772;29;20027;-77
2022/04/02 05:21:18;;;;;;;21.67;11.60;;;-0.50;99.90;;;;;;4932402;29;20079;-77
2022/04/02 05:23:44;;;;;;;10.90;6.47;;;-0.80;99.90;;;;;;4932535;29;20036;-77
2022/04/02 05:26:09;;;;;;;20.48;10.80;;;-0.70;99.90;;;;;;4931687;29;20289;-78
2022/04/02 05:28:35;;;;;;;17.48;10.23;;;-0.50;99.90;;;;;;4930865;29;20126;-77
2022/04/02 05:31:01;;;;;;;35.47;16.90;;;-0.10;99.90;;;;;;4931615;29;20107;-78
2022/04/02 05:33:27;;;;;;;30.20;14.02;;;-0.70;99.90;;;;;;4929966;29;20040;-78
2022/04/02 05:35:52;;;;;;;16.70;9.25;;;-0.80;99.90;;;;;;4930295;29;20030;-78
2022/04/02 05:38:18;;;;;;;19.55;10.18;;;-0.40;99.90;;;;;;4932585;29;20027;-78
2022/04/02 05:40:44;;;;;;;19.58;9.55;;;-0.40;99.90;;;;;;4930514;29;20028;-76
2022/04/02 05:43:09;;;;;;;23.92;12.50;;;-0.50;99.90;;;;;;4932368;29;20028;-75
2022/04/02 05:45:35;;;;;;;22.73;11.13;;;-0.60;99.90;;;;;;4931745;29;20054;-78
2022/04/02 05:48:01;;;;;;;19.00;10.07;;;0.00;99.90;;;;;;4930009;29;20032;-78
2022/04/02 05:50:27;;;;;;;25.15;12.23;;;-0.60;99.90;;;;;;4932902;29;20024;-76
2022/04/02 05:52:53;;;;;;;24.35;10.40;;;-0.70;99.90;;;;;;4935732;29;20031;-80
2022/04/02 05:55:19;;;;;;;26.30;12.10;;;-0.40;99.90;;;;;;4935481;29;20107;-76
2022/04/02 05:57:46;;;;;;;30.60;13.20;;;-0.40;99.90;;;;;;4931399;29;20026;-78
2022/04/02 06:00:15;;;;;;;21.17;11.20;;;-0.50;99.90;;;;;;4917615;29;20035;-79
2022/04/02 06:02:41;;;;;;;33.20;12.35;;;-0.70;99.90;;;;;;4913565;29;20027;-77
2022/04/02 06:05:08;;;;;;;20.50;9.77;;;-0.30;99.90;;;;;;4932668;29;20478;-77
2022/04/02 06:07:34;;;;;;;27.15;13.07;;;-0.60;99.90;;;;;;4949194;29;20034;-77
2022/04/02 06:10:02;;;;;;;22.67;13.23;;;-0.60;99.90;;;;;;4949187;28;20039;-77
2022/04/02 06:12:29;;;;;;;23.15;12.07;;;-0.60;99.90;;;;;;4948490;29;20066;-77
2022/04/02 06:14:55;;;;;;;19.80;9.68;;;-0.20;99.90;;;;;;4949821;29;20098;-78
2022/04/02 06:17:20;;;;;;;21.00;11.52;;;-0.60;99.90;;;;;;4949097;29;20032;-78
2022/04/02 06:19:46;;;;;;;23.52;10.63;;;-0.50;99.90;;;;;;4948411;29;20050;-77
2022/04/02 06:22:12;;;;;;;18.10;10.27;;;-0.50;99.90;;;;;;4948144;29;20031;-79
2022/04/02 06:24:40;;;;;;;17.27;10.25;;;-0.50;99.90;;;;;;4949668;29;20448;-77
2022/04/02 06:27:06;;;;;;;24.83;12.35;;;-0.40;99.90;;;;;;4949815;29;20070;-76
2022/04/02 06:29:32;;;;;;;13.00;8.00;;;-0.40;99.90;;;;;;4952551;29;20035;-79
2022/04/02 06:31:58;;;;;;;15.82;7.60;;;-0.30;99.90;;;;;;4948833;29;20123;-80
2022/04/02 06:34:23;;;;;;;15.40;9.15;;;-0.30;99.90;;;;;;4950410;29;20043;-75
2022/04/02 06:36:49;;;;;;;17.98;9.32;;;-0.30;99.90;;;;;;4948756;29;20354;-76
2022/04/02 06:39:15;;;;;;;18.50;9.10;;;-0.20;99.90;;;;;;4947855;29;20027;-76
2022/04/02 06:41:41;;;;;;;18.40;9.52;;;1.40;99.90;;;;;;4947758;29;20073;-75
2022/04/02 06:44:08;;;;;;;12.80;6.88;;;-0.20;99.90;;;;;;4948172;29;20113;-75
2022/04/02 06:46:35;;;;;;;12.63;7.80;;;-0.20;99.90;;;;;;4949799;29;20123;-75
2022/04/02 06:49:00;;;;;;;17.30;10.25;;;-0.20;99.90;;;;;;4949399;29;20544;-75
2022/04/02 06:51:26;;;;;;;18.77;9.23;;;-0.30;99.90;;;;;;4949019;29;20286;-75
2022/04/02 06:53:53;;;;;;;18.10;9.88;;;-0.30;99.90;;;;;;4949735;29;20039;-75
2022/04/02 06:56:19;;;;;;;16.80;9.80;;;-0.30;99.90;;;;;;4939410;29;20027;-76
2022/04/02 06:58:45;;;;;;;13.80;8.02;;;-0.30;99.90;;;;;;4929909;29;20380;-76
2022/04/02 07:01:10;;;;;;;13.57;7.68;;;-0.30;99.90;;;;;;4929683;29;20389;-75
2022/04/02 07:03:37;;;;;;;14.90;8.65;;;-0.30;99.90;;;;;;4929902;29;20023;-75
2022/04/02 07:06:03;;;;;;;11.23;7.72;;;-0.40;99.90;;;;;;4930163;29;20036;-75
2022/04/02 07:08:29;;;;;;;11.50;7.15;;;-0.30;99.90;;;;;;4930086;29;20809;-75
2022/04/02 07:10:55;;;;;;;14.85;8.85;;;-0.40;99.90;;;;;;4929346;29;20043;-75
2022/04/02 07:13:20;;;;;;;15.15;7.88;;;-0.30;99.90;;;;;;4929566;29;20039;-75
2022/04/02 07:15:46;;;;;;;11.18;6.35;;;-0.40;99.90;;;;;;4929921;29;20115;-74
2022/04/02 07:18:12;;;;;;;16.60;7.97;;;-0.40;99.90;;;;;;4929599;29;20110;-75
2022/04/02 07:20:39;;;;;;;14.75;8.60;;;-0.30;99.90;;;;;;4929589;29;20469;-75
2022/04/02 07:23:10;;;;;;;17.55;9.32;;;-0.30;99.90;;;;;;4934554;29;20044;-77
2022/04/02 07:25:38;;;;;;;15.82;6.97;;;-0.30;99.90;;;;;;4927170;29;20027;-75
2022/04/02 07:28:04;;;;;;;12.98;8.13;;;-0.20;99.90;;;;;;4935493;28;20460;-76
2022/04/02 07:30:35;;;;;;;15.57;8.15;;;-0.20;99.90;;;;;;4929055;29;20115;-79
2022/04/02 07:33:01;;;;;;;17.00;9.45;;;-0.20;99.90;;;;;;4929840;29;20151;-77
2022/04/02 07:35:34;;;;;;;8.25;5.10;;;-0.30;99.90;;;;;;4929943;29;20055;-75
2022/04/02 07:38:20;;;;;;;26.80;9.35;;;-0.30;99.90;;;;;;4929451;29;20032;-75
2022/04/02 07:41:12;;;;;;;17.48;8.57;;;1.60;99.90;;;;;;4929198;29;20034;-80
2022/04/02 07:43:46;;;;;;;23.38;11.18;;;-0.30;99.90;;;;;;4927581;29;20489;-74
2022/04/02 07:46:23;;;;;;;28.42;12.25;;;-0.30;99.90;;;;;;4928150;29;20060;-75
2022/04/02 07:48:49;;;;;;;17.83;8.45;;;-0.30;99.90;;;;;;4929453;29;20082;-75
2022/04/02 07:51:18;;;;;;;21.77;9.93;;;-0.10;99.90;;;;;;4929524;29;20027;-75
2022/04/02 07:53:50;;;;;;;16.33;9.30;;;-0.30;99.90;;;;;;4927434;29;20043;-76
2022/04/02 07:56:42;;;;;;;15.70;7.72;;;-0.20;99.90;;;;;;4927809;29;20848;-75
2022/04/02 07:59:11;;;;;;;14.20;7.53;;;-0.10;99.90;;;;;;4916953;29;20042;-77
2022/04/02 08:01:37;;;;;;;15.35;8.70;;;-0.20;99.90;;;;;;4928595;29;20573;-76
2022/04/02 08:04:06;;;;;;;21.75;8.77;;;-0.10;99.90;;;;;;4927381;29;20110;-75
2022/04/02 08:06:34;;;;;;;12.38;6.75;;;-0.10;99.90;;;;;;4926426;29;20023;-76
2022/04/02 08:09:00;;;;;;;13.90;8.30;;;-0.20;99.90;;;;;;4928646;29;20489;-76
2022/04/02 08:11:27;;;;;;;16.10;7.90;;;-0.10;99.90;;;;;;4924191;29;20083;-74
2022/04/02 08:13:54;;;;;;;15.18;8.05;;;-0.10;99.90;;;;;;4926343;29;20096;-78
2022/04/02 08:16:20;;;;;;;7.95;4.68;;;-0.20;99.90;;;;;;4925156;29;20028;-76
2022/04/02 08:18:47;;;;;;;13.63;7.85;;;0.00;99.90;;;;;;4925451;29;20023;-75
2022/04/02 08:21:13;;;;;;;16.88;7.82;;;-0.20;99.90;;;;;;4929077;29;20105;-75
2022/04/02 08:23:39;;;;;;;15.23;7.90;;;-0.20;99.90;;;;;;4925981;29;20469;-75
2022/04/02 08:26:19;;;;;;;12.73;6.90;;;-0.10;99.90;;;;;;4915314;29;20138;-75
2022/04/02 08:29:13;;;;;;;10.95;6.63;;;-0.20;99.90;;;;;;4914467;29;20378;-75
2022/04/02 08:31:58;;;;;;;13.68;7.22;;;-0.20;99.90;;;;;;4906939;29;20366;-76
2022/04/02 08:34:44;;;;;;;12.57;7.07;;;-0.10;99.90;;;;;;4927546;29;20046;-76
2022/04/02 08:37:49;;;;;;;11.95;6.82;;;0.50;99.90;;;;;;4928996;29;20044;-75
2022/04/02 08:40:48;;;;;;;13.57;7.80;;;-0.10;99.90;;;;;;4920687;29;20527;-77
2022/04/02 08:43:33;;;;;;;11.43;6.57;;;-0.10;99.90;;;;;;4930284;29;20115;-75
2022/04/02 08:46:13;;;;;;;6.25;4.68;;;-0.10;99.90;;;;;;4931144;29;20579;-75
2022/04/02 08:48:59;;;;;;;9.35;5.88;;;0.00;99.90;;;;;;4930819;29;20137;-76
2022/04/02 08:51:43;;;;;;;11.00;6.78;;;0.10;99.90;;;;;;4933936;29;20307;-75
2022/04/02 08:54:28;;;;;;;17.60;7.47;;;-0.10;99.90;;;;;;4932312;29;20095;-75
2022/04/02 08:57:29;;;;;;;19.38;8.30;;;0.00;99.90;;;;;;4933355;29;20276;-75
2022/04/02 09:00:06;;;;;;;10.20;5.93;;;0.00;99.90;;;;;;4915984;29;20023;-76
2022/04/02 09:02:54;;;;;;;12.55;7.47;;;-0.10;99.90;;;;;;4932629;29;20030;-76
2022/04/02 09:05:48;;;;;;;20.15;11.40;;;2.20;99.90;;;;;;4932561;29;20288;-79
2022/04/02 09:08:35;;;;;;;7.40;5.68;;;0.00;99.90;;;;;;4932981;29;20480;-77
2022/04/02 09:11:09;;;;;;;13.40;7.10;;;0.10;99.90;;;;;;4937325;29;20035;-76
2022/04/02 09:14:17;;;;;;;12.27;7.20;;;0.00;99.90;;;;;;4918493;29;20051;-75
2022/04/02 09:17:07;;;;;;;10.32;6.57;;;0.10;99.90;;;;;;4915927;29;20037;-78
2022/04/02 09:20:09;;;;;;;9.95;6.63;;;0.10;99.90;;;;;;4918439;29;20050;-75
2022/04/02 09:22:46;;;;;;;11.20;6.50;;;0.10;99.90;;;;;;4931954;29;20032;-76
2022/04/02 09:25:37;;;;;;;18.23;7.18;;;0.20;99.90;;;;;;4932818;29;20023;-76
2022/04/02 09:28:09;;;;;;;14.77;7.80;;;0.20;99.90;;;;;;4914769;29;20047;-76
2022/04/02 09:31:32;;;;;;;5.75;4.15;;;0.30;99.90;;;;;;4914838;29;20020;-76
2022/04/02 09:34:22;;;;;;;8.00;5.93;;;0.30;99.90;;;;;;4837921;29;20139;-77
2022/04/02 09:37:23;;;;;;;11.20;6.78;;;0.20;99.90;;;;;;4853760;29;20041;-78
2022/04/02 09:40:09;;;;;;;9.68;6.22;;;0.40;99.90;;;;;;4872828;29;20069;-77
2022/04/02 09:42:43;;;;;;;14.40;7.63;;;0.60;99.90;;;;;;4934729;29;20051;-77
2022/04/02 09:45:09;;;;;;;9.27;5.53;;;0.80;99.90;;;;;;4932359;29;20024;-76
2022/04/02 09:47:47;;;;;;;8.93;5.00;;;0.80;99.90;;;;;;4931781;29;20036;-75
2022/04/02 09:50:21;;;;;;;12.35;7.00;;;1.80;99.90;;;;;;4931152;29;20036;-76
2022/04/02 09:52:57;;;;;;;11.50;6.78;;;0.70;99.90;;;;;;4930871;29;20265;-75
2022/04/02 09:55:28;;;;;;;10.65;6.68;;;0.70;99.90;;;;;;4930253;29;20520;-76
2022/04/02 09:58:09;;;;;;;18.48;8.73;;;0.90;99.90;;;;;;4912693;29;20087;-77
2022/04/02 10:01:05;;;;;;;9.55;6.10;;;0.90;99.90;;;;;;4911661;29;20114;-76
2022/04/02 10:03:43;;;;;;;11.05;6.80;;;0.80;99.90;;;;;;4911967;29;20043;-76
2022/04/02 10:06:16;;;;;;;10.48;6.78;;;0.90;99.90;;;;;;4912403;29;20040;-75
2022/04/02 10:08:54;;;;;;;10.00;6.68;;;1.00;99.90;;;;;;4911636;29;20040;-76
2022/04/02 10:11:26;;;;;;;7.82;4.80;;;1.20;99.90;;;;;;4895561;29;20030;-76
2022/04/02 10:13:52;;;;;;;12.13;6.40;;;1.20;99.90;;;;;;4909722;29;20032;-75
2022/04/02 10:16:22;;;;;;;8.98;7.22;;;1.20;99.90;;;;;;4918609;29;20481;-75
2022/04/02 10:18:52;;;;;;;10.25;6.53;;;1.10;99.90;;;;;;4911007;29;20500;-75
2022/04/02 10:21:20;;;;;;;7.43;4.32;;;1.20;99.90;;;;;;4910503;29;20039;-77
2022/04/02 10:23:54;;;;;;;9.55;5.85;;;1.10;99.90;;;;;;4894358;29;20032;-76
2022/04/02 10:26:21;;;;;;;6.68;4.53;;;1.10;99.90;;;;;;4916302;29;20059;-75
2022/04/02 10:28:54;;;;;;;10.65;6.50;;;0.90;99.90;;;;;;4928931;29;20023;-76
2022/04/02 10:31:33;;;;;;;12.93;7.40;;;0.80;99.90;;;;;;4929062;29;20351;-77
2022/04/02 10:34:12;;;;;;;8.43;5.28;;;0.90;99.90;;;;;;4928755;29;20488;-77
2022/04/02 10:36:48;;;;;;;9.55;6.70;;;0.90;99.90;;;;;;4930299;29;20031;-77
2022/04/02 10:39:15;;;;;;;10.75;6.28;;;0.80;99.90;;;;;;4928578;29;20114;-76
2022/04/02 10:41:44;;;;;;;9.05;6.05;;;0.90;99.90;;;;;;4930334;29;20087;-78
2022/04/02 10:44:21;;;;;;;9.83;6.00;;;1.00;99.90;;;;;;4929117;29;20649;-77
2022/04/02 10:46:49;;;;;;;8.85;5.75;;;0.90;99.90;;;;;;4930420;29;20385;-85
2022/04/02 10:49:23;;;;;;;8.00;5.35;;;0.80;99.90;;;;;;4930676;29;20035;-78
2022/04/02 10:51:54;;;;;;;7.55;5.15;;;1.00;99.90;;;;;;4931294;29;20031;-78
2022/04/02 10:54:27;;;;;;;7.95;5.25;;;0.90;99.90;;;;;;4928624;29;20142;-77
2022/04/02 10:56:55;;;;;;;7.18;5.88;;;1.00;99.90;;;;;;4928296;29;20392;-75
2022/04/02 10:59:22;;;;;;;7.18;4.65;;;1.00;99.90;;;;;;4930174;29;20039;-75
2022/04/02 11:01:53;;;;;;;20.88;7.60;;;1.00;99.90;;;;;;4931429;29;20028;-75
2022/04/02 11:04:39;;;;;;;17.63;9.02;;;1.20;99.90;;;;;;4933232;29;20028;-78
2022/04/02 11:07:04;;;;;;;13.35;7.32;;;1.40;99.90;;;;;;4929517;29;20035;-75
2022/04/02 11:09:41;;;;;;;8.63;5.47;;;1.60;99.90;;;;;;4930619;29;20426;-79
2022/04/02 11:12:11;;;;;;;4.68;4.25;;;1.60;99.90;;;;;;4928468;29;20040;-79
2022/04/02 11:14:47;;;;;;;5.40;4.22;;;1.30;99.90;;;;;;4929084;29;20035;-79
2022/04/02 11:17:33;;;;;;;7.50;5.88;;;1.50;99.90;;;;;;4929765;29;20055;-79
2022/04/02 11:20:14;;;;;;;5.63;4.40;;;3.70;99.90;;;;;;4927871;29;20039;-79
2022/04/02 11:22:51;;;;;;;9.85;5.25;;;1.60;99.90;;;;;;4928381;29;20051;-80
2022/04/02 11:25:29;;;;;;;5.95;4.47;;;1.40;99.90;;;;;;4928323;29;20075;-78
2022/04/02 11:28:08;;;;;;;10.20;5.45;;;1.30;99.90;;;;;;4929679;29;20097;-77
2022/04/02 11:30:40;;;;;;;7.85;5.55;;;1.40;99.90;;;;;;4928286;29;20031;-78
2022/04/02 11:33:23;;;;;;;9.80;5.28;;;1.60;99.90;;;;;;4930633;29;20039;-83
2022/04/02 11:36:16;;;;;;;8.48;5.40;;;1.70;99.90;;;;;;4929537;29;20034;-80
2022/04/02 11:38:56;;;;;;;5.40;3.92;;;1.70;99.90;;;;;;4931477;29;20024;-80
2022/04/02 11:41:32;;;;;;;7.40;4.82;;;1.80;99.90;;;;;;4930221;29;20031;-79
2022/04/02 11:44:05;;;;;;;8.00;4.45;;;1.80;99.90;;;;;;4918980;29;20021;-81
2022/04/02 11:46:55;;;;;;;7.72;4.57;;;1.90;99.90;;;;;;4931701;29;20315;-78
2022/04/02 11:49:37;;;;;;;5.95;4.20;;;1.70;99.90;;;;;;4921759;29;20035;-80
2022/04/02 11:52:10;;;;;;;3.97;3.55;;;1.60;99.90;;;;;;4938500;29;20039;-81
2022/04/02 11:54:59;;;;;;;5.63;4.07;;;2.00;99.90;;;;;;4940852;29;20043;-78
2022/04/02 11:57:26;;;;;;;4.50;3.95;;;1.70;99.90;;;;;;4937480;29;20347;-78
2022/04/02 11:59:53;;;;;;;6.65;5.15;;;1.80;99.90;;;;;;4924280;29;20039;-77
2022/04/02 12:02:52;;;;;;;5.70;3.88;;;1.80;99.90;;;;;;4936376;29;20058;-78
2022/04/02 12:05:20;;;;;;;5.15;3.97;;;2.60;99.90;;;;;;4893320;29;20043;-76
2022/04/02 12:07:52;;;;;;;8.35;4.85;;;1.60;99.90;;;;;;4940422;29;20027;-78
2022/04/02 12:10:23;;;;;;;7.20;4.75;;;1.80;99.90;;;;;;4946869;29;20208;-77
2022/04/02 12:12:51;;;;;;;6.65;4.05;;;1.40;99.90;;;;;;4946726;29;20504;-77
2022/04/02 12:15:17;;;;;;;6.00;4.35;;;1.20;99.90;;;;;;4935343;29;20031;-78
2022/04/02 12:18:14;;;;;;;7.03;5.20;;;1.00;99.90;;;;;;4930776;29;20382;-77
2022/04/02 12:20:40;;;;;;;3.80;3.15;;;1.10;99.90;;;;;;4919537;29;20032;-79
2022/04/02 12:23:14;;;;;;;5.30;4.28;;;1.00;99.90;;;;;;4930994;29;20070;-74
2022/04/02 12:25:45;;;;;;;4.43;3.50;;;1.10;99.90;;;;;;4932296;29;20032;-75
2022/04/02 12:28:18;;;;;;;8.30;4.18;;;1.30;99.90;;;;;;4932818;29;20507;-79
2022/04/02 12:30:52;;;;;;;4.53;3.85;;;1.50;99.90;;;;;;4929494;29;20043;-78
2022/04/02 12:33:20;;;;;;;4.72;4.03;;;1.70;99.90;;;;;;4931171;29;20115;-75
2022/04/02 12:35:58;;;;;;;4.82;3.40;;;1.60;99.90;;;;;;4933074;29;20024;-84
2022/04/02 12:38:31;;;;;;;4.43;3.28;;;1.70;99.90;;;;;;4931839;29;20032;-78
2022/04/02 12:40:58;;;;;;;5.70;4.18;;;1.60;99.90;;;;;;4932489;29;20256;-78
2022/04/02 12:43:35;;;;;;;5.55;3.70;;;1.40;99.90;;;;;;4933108;29;20025;-76
2022/04/02 12:46:02;;;;;;;6.35;4.00;;;1.40;99.90;;;;;;4931571;29;20040;-78
2022/04/02 12:48:43;;;;;;;5.13;3.95;;;1.30;99.90;;;;;;4942724;29;20043;-80
2022/04/02 12:51:14;;;;;;;4.55;3.53;;;1.30;99.90;;;;;;4943393;29;20016;-78
2022/04/02 12:53:42;;;;;;;5.57;4.90;;;1.30;99.90;;;;;;4938561;29;20123;-79
2022/04/02 12:56:10;;;;;;;5.93;4.95;;;1.20;99.90;;;;;;4941507;29;20027;-76
2022/04/02 12:58:37;;;;;;;6.45;4.13;;;1.10;99.90;;;;;;4955631;29;20035;-74
2022/04/02 13:01:30;;;;;;;5.28;4.22;;;1.30;99.90;;;;;;4941161;29;20043;-75
2022/04/02 13:04:03;;;;;;;6.40;4.28;;;1.30;99.90;;;;;;4939962;29;20032;-75